createdAt,value
2019-03-31T00:04:23.065Z,27.57
2019-03-31T00:10:27.752Z,27.00
2019-03-31T00:16:32.321Z,35.77
2019-03-31T00:22:36.940Z,25.50
2019-03-31T00:28:41.494Z,27.60
2019-03-31T00:34:46.210Z,31.83
2019-03-31T00:40:50.767Z,31.20
2019-03-31T00:46:55.597Z,27.67
2019-03-31T00:53:00.406Z,24.93
2019-03-31T00:59:05.107Z,28.40
2019-03-31T01:05:10.150Z,28.60
2019-03-31T01:11:19.796Z,26.73
2019-03-31T01:17:24.487Z,29.80
2019-03-31T01:23:29.052Z,32.03
2019-03-31T01:29:33.943Z,31.33
2019-03-31T01:35:38.567Z,32.10
2019-03-31T01:41:43.468Z,32.07
2019-03-31T01:47:48.108Z,33.73
2019-03-31T01:53:52.798Z,34.83
2019-03-31T01:59:57.413Z,39.77
2019-03-31T02:06:02.114Z,45.10
2019-03-31T02:12:06.856Z,44.60
2019-03-31T02:18:11.548Z,43.37
2019-03-31T02:24:16.125Z,42.60
2019-03-31T02:30:20.835Z,45.90
2019-03-31T02:36:25.375Z,40.57
2019-03-31T02:42:30.228Z,44.07
2019-03-31T02:48:34.839Z,48.40
2019-03-31T02:54:39.487Z,54.07
2019-03-31T03:00:44.864Z,47.80
2019-03-31T03:06:53.005Z,47.23
2019-03-31T03:12:59.835Z,51.57
2019-03-31T03:19:04.380Z,42.87
2019-03-31T03:25:09.175Z,37.07
2019-03-31T03:31:16.401Z,48.33
2019-03-31T03:37:20.197Z,44.37
2019-03-31T03:43:24.778Z,38.90
2019-03-31T03:49:29.312Z,38.70
2019-03-31T03:55:33.896Z,44.60
2019-03-31T04:01:38.517Z,42.33
2019-03-31T04:07:43.307Z,43.73
2019-03-31T04:13:47.931Z,43.20
2019-03-31T04:19:52.481Z,36.43
2019-03-31T04:25:57.046Z,45.50
2019-03-31T04:32:01.656Z,43.50
2019-03-31T04:38:06.195Z,39.40
2019-03-31T04:44:10.768Z,44.57
2019-03-31T04:50:15.554Z,44.27
2019-03-31T04:56:20.175Z,45.97
2019-03-31T05:02:27.207Z,59.93
2019-03-31T05:08:31.095Z,49.97
2019-03-31T05:14:35.655Z,49.77
2019-03-31T05:20:40.224Z,46.10
2019-03-31T05:26:44.850Z,47.63
2019-03-31T05:32:49.489Z,46.10
2019-03-31T05:38:54.102Z,49.17
2019-03-31T05:44:58.646Z,50.50
2019-03-31T05:51:03.203Z,52.20
2019-03-31T05:57:07.759Z,56.23
2019-03-31T06:03:12.303Z,52.07
2019-03-31T06:09:16.882Z,50.33
2019-03-31T06:15:21.424Z,49.50
2019-03-31T06:21:29.045Z,48.47
2019-03-31T06:27:32.420Z,46.10
2019-03-31T06:33:37.001Z,55.07
2019-03-31T06:39:41.540Z,60.30
2019-03-31T06:45:46.124Z,115.87
2019-03-31T06:51:50.678Z,77.03
2019-03-31T06:57:55.307Z,72.93
2019-03-31T07:03:59.912Z,95.87
2019-03-31T07:10:06.834Z,107.97
2019-03-31T07:16:11.400Z,112.70
2019-03-31T07:22:15.980Z,110.43
2019-03-31T07:28:20.529Z,93.77
2019-03-31T07:34:25.154Z,94.60
2019-03-31T07:40:29.904Z,90.30
2019-03-31T07:46:34.557Z,75.53
2019-03-31T07:52:39.271Z,70.73
2019-03-31T07:58:43.840Z,46.30
2019-03-31T08:04:48.407Z,49.00
2019-03-31T08:10:52.981Z,43.93
2019-03-31T08:16:57.574Z,44.00
2019-03-31T08:23:02.141Z,34.30
2019-03-31T08:29:06.872Z,35.70
2019-03-31T08:35:12.076Z,45.37
2019-03-31T08:41:16.647Z,40.90
2019-03-31T08:47:22.045Z,26.00
2019-03-31T08:53:27.099Z,27.70
2019-03-31T08:59:31.675Z,26.30
2019-03-31T09:05:36.327Z,20.87
2019-03-31T09:11:41.011Z,14.03
2019-03-31T09:17:45.607Z,19.70
2019-03-31T09:23:50.274Z,14.10
2019-03-31T09:29:54.910Z,14.30
2019-03-31T09:35:59.495Z,16.80
2019-03-31T09:42:04.196Z,20.33
2019-03-31T09:48:08.861Z,22.33
2019-03-31T09:54:13.453Z,21.37
2019-03-31T10:00:45.874Z,28.20
2019-03-31T10:06:50.414Z,18.97
2019-03-31T10:12:54.982Z,21.47
2019-03-31T10:18:59.552Z,23.10
2019-03-31T10:25:06.347Z,22.57
2019-03-31T10:31:10.954Z,19.03
2019-03-31T10:37:15.511Z,21.37
2019-03-31T10:43:20.175Z,24.50
2019-03-31T10:49:24.817Z,26.10
2019-03-31T10:55:29.372Z,25.60
2019-03-31T11:01:33.967Z,20.43
2019-03-31T11:07:38.586Z,20.27
2019-03-31T11:13:43.163Z,18.97
2019-03-31T11:19:47.739Z,19.77
2019-03-31T11:25:52.462Z,14.57
2019-03-31T11:31:57.056Z,13.10
2019-03-31T11:38:01.698Z,9.87
2019-03-31T11:44:06.423Z,10.27
2019-03-31T11:50:12.003Z,7.83
2019-03-31T11:56:16.641Z,6.80
2019-03-31T12:02:27.272Z,8.87
2019-03-31T12:08:28.445Z,8.00
2019-03-31T12:14:33.012Z,7.20
2019-03-31T12:20:37.738Z,6.00
2019-03-31T12:26:42.355Z,4.97
2019-03-31T12:32:46.912Z,7.70
2019-03-31T12:38:53.855Z,8.57
2019-03-31T12:44:57.789Z,9.00
2019-03-31T12:51:02.346Z,12.63
2019-03-31T12:57:06.909Z,11.63
2019-03-31T13:03:11.538Z,6.60
2019-03-31T13:09:16.086Z,6.63
2019-03-31T13:15:20.719Z,7.23
2019-03-31T13:21:25.426Z,10.50
2019-03-31T13:27:29.984Z,7.90
2019-03-31T13:33:34.618Z,11.87
2019-03-31T13:39:39.194Z,7.57
2019-03-31T13:45:43.867Z,8.53
2019-03-31T13:51:48.445Z,11.37
2019-03-31T13:57:54.206Z,7.40
2019-03-31T14:03:59.355Z,8.80
2019-03-31T14:10:05.933Z,12.03
2019-03-31T14:16:11.479Z,10.77
2019-03-31T14:22:16.030Z,7.40
2019-03-31T14:28:20.586Z,4.80
2019-03-31T14:34:25.213Z,7.73
2019-03-31T14:40:29.864Z,6.00
2019-03-31T14:46:34.463Z,7.67
2019-03-31T14:52:39.032Z,7.00
2019-03-31T14:58:45.130Z,9.43
2019-03-31T15:04:49.773Z,6.80
2019-03-31T15:10:54.340Z,7.80
2019-03-31T15:16:58.918Z,6.50
2019-03-31T15:23:03.478Z,7.33
2019-03-31T15:29:08.063Z,5.77
2019-03-31T15:35:12.869Z,7.97
2019-03-31T15:41:21.274Z,6.67
2019-03-31T15:47:23.739Z,26.83
2019-03-31T15:53:28.424Z,6.97
2019-03-31T15:59:32.987Z,5.77
2019-03-31T16:05:37.618Z,4.53
2019-03-31T16:11:53.234Z,3.83
2019-03-31T16:17:48.595Z,5.40
2019-03-31T16:23:53.229Z,8.20
2019-03-31T16:29:57.867Z,9.13
2019-03-31T16:36:02.425Z,10.77
2019-03-31T16:42:07.171Z,6.40
2019-03-31T16:48:11.804Z,3.73
2019-03-31T16:54:16.453Z,10.40
2019-03-31T17:00:21.447Z,6.63
2019-03-31T17:06:26.014Z,7.37
2019-03-31T17:12:30.604Z,5.40
2019-03-31T17:18:35.157Z,15.10
2019-03-31T17:24:39.811Z,5.60
2019-03-31T17:30:44.479Z,13.57
2019-03-31T17:36:49.047Z,6.83
2019-03-31T17:42:53.627Z,9.73
2019-03-31T17:48:58.203Z,9.13
2019-03-31T17:55:02.947Z,6.33
2019-03-31T18:01:07.578Z,14.60
2019-03-31T18:07:12.164Z,7.70
2019-03-31T18:13:16.800Z,4.93
2019-03-31T18:19:21.353Z,7.97
2019-03-31T18:25:25.982Z,6.30
2019-03-31T18:31:30.553Z,14.03
2019-03-31T18:37:35.186Z,11.00
2019-03-31T18:43:50.558Z,7.70
2019-03-31T18:49:46.170Z,8.53
2019-03-31T18:55:58.117Z,12.17
2019-03-31T19:02:20.396Z,9.13
2019-03-31T19:08:42.859Z,6.40
2019-03-31T19:15:01.081Z,8.47
2019-03-31T19:21:16.090Z,6.00
2019-03-31T19:27:38.643Z,4.63
2019-03-31T19:33:48.772Z,11.47
2019-03-31T19:39:58.989Z,6.80
2019-03-31T19:46:23.347Z,9.60
2019-03-31T19:52:32.250Z,8.27
2019-03-31T19:58:42.545Z,9.03
2019-03-31T20:04:50.603Z,6.97
2019-03-31T20:11:05.822Z,10.53
2019-03-31T20:17:20.749Z,6.17
2019-03-31T20:23:35.978Z,8.00
2019-03-31T20:29:42.219Z,10.80
2019-03-31T20:35:48.587Z,5.80
2019-03-31T20:41:56.300Z,11.40
2019-03-31T20:48:00.858Z,8.73
2019-03-31T20:54:05.647Z,5.10
2019-03-31T21:00:11.680Z,3.70
2019-03-31T21:06:16.223Z,4.70
2019-03-31T21:12:27.902Z,7.03
2019-03-31T21:18:32.574Z,9.97
2019-03-31T21:24:37.158Z,8.83
2019-03-31T21:30:41.704Z,9.40
2019-03-31T21:36:46.330Z,6.23
2019-03-31T21:42:50.904Z,8.00
2019-03-31T21:48:55.482Z,9.03
2019-03-31T21:55:00.101Z,5.63
2019-03-31T22:01:05.164Z,8.43
2019-03-31T22:07:09.796Z,4.63
2019-03-31T22:13:14.421Z,8.93
2019-03-31T22:19:18.986Z,11.93
2019-03-31T22:25:23.547Z,10.43
2019-03-31T22:31:28.131Z,10.50
2019-03-31T22:37:32.767Z,6.20
2019-03-31T22:43:37.384Z,9.90
2019-03-31T22:49:41.937Z,8.50
2019-03-31T22:55:46.513Z,3.83
2019-03-31T23:01:51.216Z,8.37
2019-03-31T23:07:55.853Z,4.60
2019-03-31T23:14:00.418Z,4.30
2019-03-31T23:20:05.969Z,4.40
2019-03-31T23:26:10.554Z,4.10
2019-03-31T23:32:15.123Z,6.70
2019-03-31T23:38:19.691Z,5.90
2019-03-31T23:44:24.316Z,4.93
2019-03-31T23:50:28.881Z,5.33
2019-03-31T23:56:34.198Z,6.00
